sensor_id;sensor_type;location;lat;lon;timestamp;P1;durP1;ratioP1;P2;durP2;ratioP2
8737;SDS011;4405;49.272;8.590;2022-10-19T00:00:50;6.43;;;5.90;;
8737;SDS011;4405;49.272;8.590;2022-10-19T00:03:25;28.73;;;6.73;;
8737;SDS011;4405;49.272;8.590;2022-10-19T00:05:51;15.90;;;6.40;;
8737;SDS011;4405;49.272;8.590;2022-10-19T00:08:17;12.87;;;6.27;;
8737;SDS011;4405;49.272;8.590;2022-10-19T00:10:45;6.40;;;5.90;;
8737;SDS011;4405;49.272;8.590;2022-10-19T00:13:12;15.60;;;6.07;;
8737;SDS011;4405;49.272;8.590;2022-10-19T00:15:38;5.93;;;5.60;;
8737;SDS011;4405;49.272;8.590;2022-10-19T00:18:05;6.00;;;5.50;;
8737;SDS011;4405;49.272;8.590;2022-10-19T00:20:31;6.17;;;5.67;;
8737;SDS011;4405;49.272;8.590;2022-10-19T00:22:58;14.93;;;5.87;;
8737;SDS011;4405;49.272;8.590;2022-10-19T00:25:24;6.77;;;5.90;;
8737;SDS011;4405;49.272;8.590;2022-10-19T00:27:52;7.13;;;6.00;;
8737;SDS011;4405;49.272;8.590;2022-10-19T00:30:18;9.97;;;6.03;;
8737;SDS011;4405;49.272;8.590;2022-10-19T00:32:44;10.83;;;6.10;;
8737;SDS011;4405;49.272;8.590;2022-10-19T00:35:11;8.87;;;6.47;;
8737;SDS011;4405;49.272;8.590;2022-10-19T00:37:37;22.20;;;6.67;;
8737;SDS011;4405;49.272;8.590;2022-10-19T00:40:04;43.80;;;8.07;;
8737;SDS011;4405;49.272;8.590;2022-10-19T00:42:30;28.40;;;7.20;;
8737;SDS011;4405;49.272;8.590;2022-10-19T00:45:03;11.33;;;7.33;;
8737;SDS011;4405;49.272;8.590;2022-10-19T00:47:30;9.77;;;6.97;;
8737;SDS011;4405;49.272;8.590;2022-10-19T00:49:56;10.87;;;7.33;;
8737;SDS011;4405;49.272;8.590;2022-10-19T00:52:23;69.43;;;9.73;;
8737;SDS011;4405;49.272;8.590;2022-10-19T00:54:51;69.27;;;9.40;;
8737;SDS011;4405;49.272;8.590;2022-10-19T00:57:18;49.63;;;8.53;;
8737;SDS011;4405;49.272;8.590;2022-10-19T00:59:45;52.43;;;8.60;;
8737;SDS011;4405;49.272;8.590;2022-10-19T01:02:13;42.60;;;7.77;;
8737;SDS011;4405;49.272;8.590;2022-10-19T01:04:41;11.23;;;7.30;;
8737;SDS011;4405;49.272;8.590;2022-10-19T01:07:08;47.17;;;7.10;;
8737;SDS011;4405;49.272;8.590;2022-10-19T01:09:35;29.43;;;6.97;;
8737;SDS011;4405;49.272;8.590;2022-10-19T01:12:02;58.97;;;7.10;;
8737;SDS011;4405;49.272;8.590;2022-10-19T01:14:34;6.60;;;5.90;;
8737;SDS011;4405;49.272;8.590;2022-10-19T01:17:06;6.47;;;5.87;;
8737;SDS011;4405;49.272;8.590;2022-10-19T01:19:43;35.67;;;7.37;;
8737;SDS011;4405;49.272;8.590;2022-10-19T01:22:20;11.10;;;6.17;;
8737;SDS011;4405;49.272;8.590;2022-10-19T01:24:51;6.23;;;5.73;;
8737;SDS011;4405;49.272;8.590;2022-10-19T01:27:35;6.10;;;5.57;;
8737;SDS011;4405;49.272;8.590;2022-10-19T01:30:06;5.97;;;5.37;;
8737;SDS011;4405;49.272;8.590;2022-10-19T01:32:39;6.00;;;5.50;;
8737;SDS011;4405;49.272;8.590;2022-10-19T01:35:09;6.83;;;5.80;;
8737;SDS011;4405;49.272;8.590;2022-10-19T01:37:37;7.27;;;5.80;;
8737;SDS011;4405;49.272;8.590;2022-10-19T01:40:08;7.03;;;5.53;;
8737;SDS011;4405;49.272;8.590;2022-10-19T01:42:38;5.10;;;4.70;;
8737;SDS011;4405;49.272;8.590;2022-10-19T01:45:10;5.43;;;5.03;;
8737;SDS011;4405;49.272;8.590;2022-10-19T01:47:40;6.47;;;5.30;;
8737;SDS011;4405;49.272;8.590;2022-10-19T01:50:08;5.10;;;4.80;;
8737;SDS011;4405;49.272;8.590;2022-10-19T01:52:36;5.00;;;4.70;;
8737;SDS011;4405;49.272;8.590;2022-10-19T01:55:04;5.13;;;4.43;;
8737;SDS011;4405;49.272;8.590;2022-10-19T01:57:34;5.60;;;5.10;;
8737;SDS011;4405;49.272;8.590;2022-10-19T02:00:02;5.70;;;4.97;;
8737;SDS011;4405;49.272;8.590;2022-10-19T02:02:32;9.53;;;4.90;;
8737;SDS011;4405;49.272;8.590;2022-10-19T02:04:59;12.40;;;5.77;;
8737;SDS011;4405;49.272;8.590;2022-10-19T02:07:27;29.80;;;4.90;;
8737;SDS011;4405;49.272;8.590;2022-10-19T02:09:54;5.17;;;4.77;;
8737;SDS011;4405;49.272;8.590;2022-10-19T02:12:20;20.20;;;3.77;;
8737;SDS011;4405;49.272;8.590;2022-10-19T02:14:49;11.13;;;4.10;;
8737;SDS011;4405;49.272;8.590;2022-10-19T02:17:18;11.50;;;3.77;;
8737;SDS011;4405;49.272;8.590;2022-10-19T02:19:47;24.97;;;4.43;;
8737;SDS011;4405;49.272;8.590;2022-10-19T02:22:13;8.27;;;3.90;;
8737;SDS011;4405;49.272;8.590;2022-10-19T02:24:39;20.60;;;4.70;;
8737;SDS011;4405;49.272;8.590;2022-10-19T02:27:06;7.47;;;4.37;;
8737;SDS011;4405;49.272;8.590;2022-10-19T02:29:33;4.37;;;4.10;;
8737;SDS011;4405;49.272;8.590;2022-10-19T02:32:00;10.97;;;4.30;;
8737;SDS011;4405;49.272;8.590;2022-10-19T02:34:26;4.93;;;4.40;;
8737;SDS011;4405;49.272;8.590;2022-10-19T02:36:54;8.03;;;4.43;;
8737;SDS011;4405;49.272;8.590;2022-10-19T02:39:20;5.67;;;4.30;;
8737;SDS011;4405;49.272;8.590;2022-10-19T02:41:48;4.23;;;3.83;;
8737;SDS011;4405;49.272;8.590;2022-10-19T02:44:16;27.73;;;4.60;;
8737;SDS011;4405;49.272;8.590;2022-10-19T02:46:44;9.37;;;3.70;;
8737;SDS011;4405;49.272;8.590;2022-10-19T02:49:12;8.67;;;4.00;;
8737;SDS011;4405;49.272;8.590;2022-10-19T02:51:40;9.13;;;3.90;;
8737;SDS011;4405;49.272;8.590;2022-10-19T02:54:21;7.67;;;3.90;;
8737;SDS011;4405;49.272;8.590;2022-10-19T02:56:48;3.60;;;3.30;;
8737;SDS011;4405;49.272;8.590;2022-10-19T02:59:14;12.53;;;3.90;;
8737;SDS011;4405;49.272;8.590;2022-10-19T03:01:41;5.30;;;3.97;;
8737;SDS011;4405;49.272;8.590;2022-10-19T03:04:07;3.70;;;3.50;;
8737;SDS011;4405;49.272;8.590;2022-10-19T03:06:33;3.60;;;3.30;;
8737;SDS011;4405;49.272;8.590;2022-10-19T03:09:00;4.10;;;3.77;;
8737;SDS011;4405;49.272;8.590;2022-10-19T03:11:27;4.90;;;3.53;;
8737;SDS011;4405;49.272;8.590;2022-10-19T03:13:54;9.80;;;3.53;;
8737;SDS011;4405;49.272;8.590;2022-10-19T03:16:20;13.17;;;3.67;;
8737;SDS011;4405;49.272;8.590;2022-10-19T03:18:46;6.37;;;3.53;;
8737;SDS011;4405;49.272;8.590;2022-10-19T03:21:13;3.77;;;3.57;;
8737;SDS011;4405;49.272;8.590;2022-10-19T03:23:39;7.30;;;3.80;;
8737;SDS011;4405;49.272;8.590;2022-10-19T03:26:06;4.70;;;4.30;;
8737;SDS011;4405;49.272;8.590;2022-10-19T03:28:34;4.30;;;4.00;;
8737;SDS011;4405;49.272;8.590;2022-10-19T03:31:00;4.90;;;4.40;;
8737;SDS011;4405;49.272;8.590;2022-10-19T03:33:27;5.80;;;5.30;;
8737;SDS011;4405;49.272;8.590;2022-10-19T03:38:34;9.57;;;7.80;;
8737;SDS011;4405;49.272;8.590;2022-10-19T03:41:04;10.43;;;8.47;;
8737;SDS011;4405;49.272;8.590;2022-10-19T03:43:30;13.33;;;7.70;;
8737;SDS011;4405;49.272;8.590;2022-10-19T03:45:58;6.67;;;6.07;;
8737;SDS011;4405;49.272;8.590;2022-10-19T03:48:24;5.10;;;4.70;;
8737;SDS011;4405;49.272;8.590;2022-10-19T03:50:56;4.90;;;4.50;;
8737;SDS011;4405;49.272;8.590;2022-10-19T03:53:23;3.90;;;3.70;;
8737;SDS011;4405;49.272;8.590;2022-10-19T03:55:49;4.47;;;3.90;;
8737;SDS011;4405;49.272;8.590;2022-10-19T03:58:15;8.80;;;4.17;;
8737;SDS011;4405;49.272;8.590;2022-10-19T04:00:42;5.33;;;4.10;;
8737;SDS011;4405;49.272;8.590;2022-10-19T04:03:09;4.47;;;4.00;;
8737;SDS011;4405;49.272;8.590;2022-10-19T04:05:36;5.33;;;4.30;;
8737;SDS011;4405;49.272;8.590;2022-10-19T04:08:02;4.00;;;3.80;;
8737;SDS011;4405;49.272;8.590;2022-10-19T04:10:29;4.80;;;4.50;;
8737;SDS011;4405;49.272;8.590;2022-10-19T04:12:55;70.60;;;5.87;;
8737;SDS011;4405;49.272;8.590;2022-10-19T04:15:22;12.67;;;4.50;;
8737;SDS011;4405;49.272;8.590;2022-10-19T04:17:48;4.20;;;4.00;;
8737;SDS011;4405;49.272;8.590;2022-10-19T04:20:16;39.27;;;5.20;;
8737;SDS011;4405;49.272;8.590;2022-10-19T04:22:42;4.80;;;4.40;;
8737;SDS011;4405;49.272;8.590;2022-10-19T04:25:09;8.97;;;4.60;;
8737;SDS011;4405;49.272;8.590;2022-10-19T04:27:36;5.93;;;4.67;;
8737;SDS011;4405;49.272;8.590;2022-10-19T04:30:03;4.83;;;4.53;;
8737;SDS011;4405;49.272;8.590;2022-10-19T04:32:29;5.80;;;5.37;;
8737;SDS011;4405;49.272;8.590;2022-10-19T04:34:55;6.93;;;6.23;;
8737;SDS011;4405;49.272;8.590;2022-10-19T04:37:23;6.07;;;5.47;;
8737;SDS011;4405;49.272;8.590;2022-10-19T04:39:50;6.83;;;5.23;;
8737;SDS011;4405;49.272;8.590;2022-10-19T04:42:16;6.13;;;5.53;;
8737;SDS011;4405;49.272;8.590;2022-10-19T04:44:42;7.10;;;5.70;;
8737;SDS011;4405;49.272;8.590;2022-10-19T04:47:08;6.13;;;5.23;;
8737;SDS011;4405;49.272;8.590;2022-10-19T04:49:35;7.13;;;5.83;;
8737;SDS011;4405;49.272;8.590;2022-10-19T04:52:01;7.70;;;6.00;;
8737;SDS011;4405;49.272;8.590;2022-10-19T04:54:29;7.67;;;5.73;;
8737;SDS011;4405;49.272;8.590;2022-10-19T04:56:55;6.30;;;5.70;;
8737;SDS011;4405;49.272;8.590;2022-10-19T04:59:22;5.83;;;5.40;;
8737;SDS011;4405;49.272;8.590;2022-10-19T05:01:48;7.00;;;5.57;;
8737;SDS011;4405;49.272;8.590;2022-10-19T05:04:14;5.80;;;5.27;;
8737;SDS011;4405;49.272;8.590;2022-10-19T05:06:41;5.50;;;5.10;;
8737;SDS011;4405;49.272;8.590;2022-10-19T05:09:07;6.10;;;5.50;;
8737;SDS011;4405;49.272;8.590;2022-10-19T05:11:35;7.07;;;6.37;;
8737;SDS011;4405;49.272;8.590;2022-10-19T05:14:01;6.77;;;6.07;;
8737;SDS011;4405;49.272;8.590;2022-10-19T05:16:28;8.67;;;6.97;;
8737;SDS011;4405;49.272;8.590;2022-10-19T05:18:54;7.63;;;6.77;;
8737;SDS011;4405;49.272;8.590;2022-10-19T05:21:23;6.53;;;6.03;;
8737;SDS011;4405;49.272;8.590;2022-10-19T05:23:50;9.40;;;6.10;;
8737;SDS011;4405;49.272;8.590;2022-10-19T05:26:17;7.83;;;6.27;;
8737;SDS011;4405;49.272;8.590;2022-10-19T05:28:47;7.03;;;6.47;;
8737;SDS011;4405;49.272;8.590;2022-10-19T05:31:14;7.97;;;6.07;;
8737;SDS011;4405;49.272;8.590;2022-10-19T05:33:41;6.27;;;5.80;;
8737;SDS011;4405;49.272;8.590;2022-10-19T05:36:14;7.03;;;6.33;;
8737;SDS011;4405;49.272;8.590;2022-10-19T05:38:41;6.93;;;5.80;;
8737;SDS011;4405;49.272;8.590;2022-10-19T05:41:07;7.37;;;6.60;;
8737;SDS011;4405;49.272;8.590;2022-10-19T05:43:34;7.73;;;6.97;;
8737;SDS011;4405;49.272;8.590;2022-10-19T05:46:05;7.60;;;6.90;;
8737;SDS011;4405;49.272;8.590;2022-10-19T05:48:32;6.70;;;5.97;;
8737;SDS011;4405;49.272;8.590;2022-10-19T05:50:59;6.93;;;6.30;;
8737;SDS011;4405;49.272;8.590;2022-10-19T05:53:25;7.27;;;6.67;;
8737;SDS011;4405;49.272;8.590;2022-10-19T05:55:52;9.50;;;6.20;;
8737;SDS011;4405;49.272;8.590;2022-10-19T05:58:18;6.77;;;6.17;;
8737;SDS011;4405;49.272;8.590;2022-10-19T06:00:49;6.60;;;6.10;;
8737;SDS011;4405;49.272;8.590;2022-10-19T06:03:17;8.73;;;6.63;;
8737;SDS011;4405;49.272;8.590;2022-10-19T06:05:43;7.43;;;6.67;;
8737;SDS011;4405;49.272;8.590;2022-10-19T06:08:10;6.27;;;5.87;;
8737;SDS011;4405;49.272;8.590;2022-10-19T06:10:36;6.90;;;6.30;;
8737;SDS011;4405;49.272;8.590;2022-10-19T06:13:02;6.67;;;6.07;;
8737;SDS011;4405;49.272;8.590;2022-10-19T06:15:31;6.87;;;6.17;;
8737;SDS011;4405;49.272;8.590;2022-10-19T06:17:57;9.23;;;6.67;;
8737;SDS011;4405;49.272;8.590;2022-10-19T06:20:25;7.10;;;6.40;;
8737;SDS011;4405;49.272;8.590;2022-10-19T06:22:53;7.60;;;6.43;;
8737;SDS011;4405;49.272;8.590;2022-10-19T06:25:19;7.00;;;6.30;;
8737;SDS011;4405;49.272;8.590;2022-10-19T06:27:46;6.80;;;6.23;;
8737;SDS011;4405;49.272;8.590;2022-10-19T06:30:12;6.90;;;6.30;;
8737;SDS011;4405;49.272;8.590;2022-10-19T06:32:39;7.30;;;6.20;;
8737;SDS011;4405;49.272;8.590;2022-10-19T06:35:05;6.57;;;6.07;;
8737;SDS011;4405;49.272;8.590;2022-10-19T06:37:33;6.40;;;5.90;;
8737;SDS011;4405;49.272;8.590;2022-10-19T06:39:59;8.17;;;6.50;;
8737;SDS011;4405;49.272;8.590;2022-10-19T06:42:26;6.20;;;5.60;;
8737;SDS011;4405;49.272;8.590;2022-10-19T06:44:52;5.87;;;5.47;;
8737;SDS011;4405;49.272;8.590;2022-10-19T06:47:18;6.53;;;6.03;;
8737;SDS011;4405;49.272;8.590;2022-10-19T06:49:45;7.03;;;6.37;;
8737;SDS011;4405;49.272;8.590;2022-10-19T06:52:11;7.53;;;6.33;;
8737;SDS011;4405;49.272;8.590;2022-10-19T06:54:39;8.30;;;7.50;;
8737;SDS011;4405;49.272;8.590;2022-10-19T06:57:05;8.70;;;7.90;;
8737;SDS011;4405;49.272;8.590;2022-10-19T06:59:32;8.33;;;7.63;;
8737;SDS011;4405;49.272;8.590;2022-10-19T07:01:58;7.93;;;7.13;;
8737;SDS011;4405;49.272;8.590;2022-10-19T07:04:24;8.13;;;7.37;;
8737;SDS011;4405;49.272;8.590;2022-10-19T07:06:51;8.57;;;7.67;;
8737;SDS011;4405;49.272;8.590;2022-10-19T07:09:17;7.07;;;6.47;;
8737;SDS011;4405;49.272;8.590;2022-10-19T07:11:45;6.60;;;6.10;;
8737;SDS011;4405;49.272;8.590;2022-10-19T07:14:12;6.67;;;6.07;;
8737;SDS011;4405;49.272;8.590;2022-10-19T07:16:38;7.30;;;6.17;;
8737;SDS011;4405;49.272;8.590;2022-10-19T07:19:04;6.63;;;6.10;;
8737;SDS011;4405;49.272;8.590;2022-10-19T07:21:31;7.20;;;6.50;;
8737;SDS011;4405;49.272;8.590;2022-10-19T07:23:57;6.80;;;6.20;;
8737;SDS011;4405;49.272;8.590;2022-10-19T07:26:24;5.30;;;4.90;;
8737;SDS011;4405;49.272;8.590;2022-10-19T07:28:53;5.73;;;5.33;;
8737;SDS011;4405;49.272;8.590;2022-10-19T07:31:21;6.00;;;5.50;;
8737;SDS011;4405;49.272;8.590;2022-10-19T07:33:50;5.77;;;5.37;;
8737;SDS011;4405;49.272;8.590;2022-10-19T07:36:16;5.40;;;5.00;;
8737;SDS011;4405;49.272;8.590;2022-10-19T07:38:43;5.47;;;5.07;;
8737;SDS011;4405;49.272;8.590;2022-10-19T07:41:10;4.93;;;4.57;;
8737;SDS011;4405;49.272;8.590;2022-10-19T07:43:37;5.17;;;4.70;;
8737;SDS011;4405;49.272;8.590;2022-10-19T07:46:06;5.20;;;4.70;;
8737;SDS011;4405;49.272;8.590;2022-10-19T07:48:33;6.13;;;5.53;;
8737;SDS011;4405;49.272;8.590;2022-10-19T07:51:00;5.93;;;5.27;;
8737;SDS011;4405;49.272;8.590;2022-10-19T07:53:27;6.53;;;5.67;;
8737;SDS011;4405;49.272;8.590;2022-10-19T07:55:53;5.47;;;4.90;;
8737;SDS011;4405;49.272;8.590;2022-10-19T07:58:20;5.07;;;4.67;;
8737;SDS011;4405;49.272;8.590;2022-10-19T08:00:46;5.80;;;5.40;;
8737;SDS011;4405;49.272;8.590;2022-10-19T08:03:14;6.03;;;5.53;;
8737;SDS011;4405;49.272;8.590;2022-10-19T08:05:40;5.67;;;5.17;;
8737;SDS011;4405;49.272;8.590;2022-10-19T08:08:06;5.33;;;4.93;;
8737;SDS011;4405;49.272;8.590;2022-10-19T08:10:33;5.40;;;4.90;;
8737;SDS011;4405;49.272;8.590;2022-10-19T08:12:59;5.43;;;4.87;;
8737;SDS011;4405;49.272;8.590;2022-10-19T08:15:27;4.90;;;4.43;;
8737;SDS011;4405;49.272;8.590;2022-10-19T08:17:54;5.90;;;5.30;;
8737;SDS011;4405;49.272;8.590;2022-10-19T08:20:21;5.30;;;4.73;;
8737;SDS011;4405;49.272;8.590;2022-10-19T08:22:48;5.40;;;4.90;;
8737;SDS011;4405;49.272;8.590;2022-10-19T08:25:14;5.83;;;5.10;;
8737;SDS011;4405;49.272;8.590;2022-10-19T08:27:41;5.13;;;4.70;;
8737;SDS011;4405;49.272;8.590;2022-10-19T08:30:07;5.53;;;5.03;;
8737;SDS011;4405;49.272;8.590;2022-10-19T08:32:33;5.23;;;4.83;;
8737;SDS011;4405;49.272;8.590;2022-10-19T08:35:00;5.23;;;4.83;;
8737;SDS011;4405;49.272;8.590;2022-10-19T08:37:28;5.23;;;4.83;;
8737;SDS011;4405;49.272;8.590;2022-10-19T08:39:54;5.17;;;4.70;;
8737;SDS011;4405;49.272;8.590;2022-10-19T08:42:22;5.83;;;5.20;;
8737;SDS011;4405;49.272;8.590;2022-10-19T08:47:43;5.43;;;4.97;;
8737;SDS011;4405;49.272;8.590;2022-10-19T08:50:16;5.93;;;5.40;;
8737;SDS011;4405;49.272;8.590;2022-10-19T08:52:45;5.77;;;5.27;;
8737;SDS011;4405;49.272;8.590;2022-10-19T08:55:15;5.47;;;4.97;;
8737;SDS011;4405;49.272;8.590;2022-10-19T08:57:46;5.77;;;5.37;;
8737;SDS011;4405;49.272;8.590;2022-10-19T09:00:16;6.27;;;5.67;;
8737;SDS011;4405;49.272;8.590;2022-10-19T09:02:48;5.63;;;5.13;;
8737;SDS011;4405;49.272;8.590;2022-10-19T09:05:19;5.83;;;5.30;;
8737;SDS011;4405;49.272;8.590;2022-10-19T09:07:50;6.30;;;5.50;;
8737;SDS011;4405;49.272;8.590;2022-10-19T09:10:17;5.93;;;5.43;;
8737;SDS011;4405;49.272;8.590;2022-10-19T09:12:46;6.10;;;5.50;;
8737;SDS011;4405;49.272;8.590;2022-10-19T09:15:14;7.33;;;5.67;;
8737;SDS011;4405;49.272;8.590;2022-10-19T09:17:43;6.37;;;5.87;;
8737;SDS011;4405;49.272;8.590;2022-10-19T09:20:13;6.10;;;5.60;;
8737;SDS011;4405;49.272;8.590;2022-10-19T09:22:39;5.87;;;5.37;;
8737;SDS011;4405;49.272;8.590;2022-10-19T09:25:10;7.90;;;5.73;;
8737;SDS011;4405;49.272;8.590;2022-10-19T09:27:39;5.93;;;5.20;;
8737;SDS011;4405;49.272;8.590;2022-10-19T09:30:09;6.60;;;6.10;;
8737;SDS011;4405;49.272;8.590;2022-10-19T09:32:40;6.23;;;5.67;;
8737;SDS011;4405;49.272;8.590;2022-10-19T09:35:14;5.97;;;5.57;;
8737;SDS011;4405;49.272;8.590;2022-10-19T09:37:43;6.40;;;5.83;;
8737;SDS011;4405;49.272;8.590;2022-10-19T09:40:12;7.03;;;6.33;;
8737;SDS011;4405;49.272;8.590;2022-10-19T09:42:39;7.33;;;5.93;;
8737;SDS011;4405;49.272;8.590;2022-10-19T09:45:10;6.17;;;5.50;;
8737;SDS011;4405;49.272;8.590;2022-10-19T09:47:38;6.07;;;5.67;;
8737;SDS011;4405;49.272;8.590;2022-10-19T09:50:07;6.93;;;5.77;;
8737;SDS011;4405;49.272;8.590;2022-10-19T09:52:34;7.80;;;5.80;;
8737;SDS011;4405;49.272;8.590;2022-10-19T09:55:02;7.20;;;5.43;;
8737;SDS011;4405;49.272;8.590;2022-10-19T09:57:30;5.60;;;5.07;;
8737;SDS011;4405;49.272;8.590;2022-10-19T09:59:57;5.47;;;5.00;;
8737;SDS011;4405;49.272;8.590;2022-10-19T10:02:27;6.00;;;5.60;;
8737;SDS011;4405;49.272;8.590;2022-10-19T10:04:55;5.43;;;4.93;;
8737;SDS011;4405;49.272;8.590;2022-10-19T10:07:23;7.33;;;6.50;;
8737;SDS011;4405;49.272;8.590;2022-10-19T10:09:50;6.00;;;5.53;;
8737;SDS011;4405;49.272;8.590;2022-10-19T10:12:17;6.77;;;6.27;;
8737;SDS011;4405;49.272;8.590;2022-10-19T10:14:45;7.00;;;6.40;;
8737;SDS011;4405;49.272;8.590;2022-10-19T10:17:13;6.03;;;5.63;;
8737;SDS011;4405;49.272;8.590;2022-10-19T10:19:49;7.77;;;5.80;;
8737;SDS011;4405;49.272;8.590;2022-10-19T10:22:22;5.87;;;5.17;;
8737;SDS011;4405;49.272;8.590;2022-10-19T10:24:53;5.10;;;4.70;;
8737;SDS011;4405;49.272;8.590;2022-10-19T10:27:24;5.57;;;5.20;;
8737;SDS011;4405;49.272;8.590;2022-10-19T10:29:54;5.60;;;5.20;;
8737;SDS011;4405;49.272;8.590;2022-10-19T10:32:21;5.07;;;4.47;;
8737;SDS011;4405;49.272;8.590;2022-10-19T10:34:53;6.30;;;5.73;;
8737;SDS011;4405;49.272;8.590;2022-10-19T10:37:22;6.00;;;5.40;;
8737;SDS011;4405;49.272;8.590;2022-10-19T10:39:50;5.70;;;5.30;;
8737;SDS011;4405;49.272;8.590;2022-10-19T10:42:18;5.47;;;5.17;;
8737;SDS011;4405;49.272;8.590;2022-10-19T10:44:46;4.80;;;4.40;;
8737;SDS011;4405;49.272;8.590;2022-10-19T10:47:16;4.10;;;3.80;;
8737;SDS011;4405;49.272;8.590;2022-10-19T10:49:44;4.83;;;4.43;;
8737;SDS011;4405;49.272;8.590;2022-10-19T10:52:18;4.37;;;4.17;;
8737;SDS011;4405;49.272;8.590;2022-10-19T10:54:56;4.77;;;4.43;;
8737;SDS011;4405;49.272;8.590;2022-10-19T10:57:23;4.17;;;3.97;;
8737;SDS011;4405;49.272;8.590;2022-10-19T10:59:52;4.90;;;4.53;;
8737;SDS011;4405;49.272;8.590;2022-10-19T11:02:25;4.47;;;4.07;;
8737;SDS011;4405;49.272;8.590;2022-10-19T11:04:55;4.87;;;3.80;;
8737;SDS011;4405;49.272;8.590;2022-10-19T11:07:25;3.90;;;3.50;;
8737;SDS011;4405;49.272;8.590;2022-10-19T11:09:53;4.33;;;3.97;;
8737;SDS011;4405;49.272;8.590;2022-10-19T11:12:23;6.13;;;4.83;;
8737;SDS011;4405;49.272;8.590;2022-10-19T11:14:55;3.60;;;3.40;;
8737;SDS011;4405;49.272;8.590;2022-10-19T11:17:22;4.27;;;3.87;;
8737;SDS011;4405;49.272;8.590;2022-10-19T11:19:51;4.17;;;3.77;;
8737;SDS011;4405;49.272;8.590;2022-10-19T11:22:19;3.70;;;3.50;;
8737;SDS011;4405;49.272;8.590;2022-10-19T11:24:50;3.07;;;2.97;;
8737;SDS011;4405;49.272;8.590;2022-10-19T11:27:22;5.37;;;3.30;;
8737;SDS011;4405;49.272;8.590;2022-10-19T11:29:55;3.03;;;2.70;;
8737;SDS011;4405;49.272;8.590;2022-10-19T11:32:26;3.20;;;3.00;;
8737;SDS011;4405;49.272;8.590;2022-10-19T11:34:59;3.17;;;2.83;;
8737;SDS011;4405;49.272;8.590;2022-10-19T11:37:29;2.80;;;2.70;;
8737;SDS011;4405;49.272;8.590;2022-10-19T11:40:00;2.90;;;2.80;;
8737;SDS011;4405;49.272;8.590;2022-10-19T11:42:36;3.00;;;2.90;;
8737;SDS011;4405;49.272;8.590;2022-10-19T11:45:10;4.00;;;3.80;;
8737;SDS011;4405;49.272;8.590;2022-10-19T11:47:41;6.40;;;4.03;;
8737;SDS011;4405;49.272;8.590;2022-10-19T11:50:20;5.93;;;4.13;;
8737;SDS011;4405;49.272;8.590;2022-10-19T11:52:49;3.90;;;3.70;;
8737;SDS011;4405;49.272;8.590;2022-10-19T11:55:20;4.20;;;3.90;;
8737;SDS011;4405;49.272;8.590;2022-10-19T11:57:53;3.57;;;3.40;;
8737;SDS011;4405;49.272;8.590;2022-10-19T12:00:21;4.20;;;3.60;;
8737;SDS011;4405;49.272;8.590;2022-10-19T12:02:57;4.77;;;4.00;;
8737;SDS011;4405;49.272;8.590;2022-10-19T12:05:32;3.60;;;3.40;;
8737;SDS011;4405;49.272;8.590;2022-10-19T12:08:03;3.67;;;3.40;;
8737;SDS011;4405;49.272;8.590;2022-10-19T12:10:32;3.50;;;3.30;;
8737;SDS011;4405;49.272;8.590;2022-10-19T12:13:02;3.53;;;3.37;;
8737;SDS011;4405;49.272;8.590;2022-10-19T12:15:30;2.90;;;2.80;;
8737;SDS011;4405;49.272;8.590;2022-10-19T12:17:58;3.37;;;2.83;;
8737;SDS011;4405;49.272;8.590;2022-10-19T12:20:27;3.47;;;3.20;;
8737;SDS011;4405;49.272;8.590;2022-10-19T12:22:56;3.63;;;3.33;;
8737;SDS011;4405;49.272;8.590;2022-10-19T12:25:23;3.90;;;3.13;;
8737;SDS011;4405;49.272;8.590;2022-10-19T12:27:50;4.77;;;3.47;;
8737;SDS011;4405;49.272;8.590;2022-10-19T12:30:17;3.23;;;3.00;;
8737;SDS011;4405;49.272;8.590;2022-10-19T12:32:48;3.23;;;2.90;;
8737;SDS011;4405;49.272;8.590;2022-10-19T12:35:20;6.20;;;2.90;;
8737;SDS011;4405;49.272;8.590;2022-10-19T12:37:51;3.37;;;3.17;;
8737;SDS011;4405;49.272;8.590;2022-10-19T12:40:24;2.60;;;2.50;;
8737;SDS011;4405;49.272;8.590;2022-10-19T12:42:55;3.80;;;3.10;;
8737;SDS011;4405;49.272;8.590;2022-10-19T12:45:24;3.87;;;3.53;;
8737;SDS011;4405;49.272;8.590;2022-10-19T12:53:25;3.30;;;3.00;;
8737;SDS011;4405;49.272;8.590;2022-10-19T12:55:58;3.27;;;3.03;;
8737;SDS011;4405;49.272;8.590;2022-10-19T12:58:25;2.97;;;2.87;;
8737;SDS011;4405;49.272;8.590;2022-10-19T13:00:56;2.80;;;2.60;;
8737;SDS011;4405;49.272;8.590;2022-10-19T13:03:23;3.00;;;2.80;;
8737;SDS011;4405;49.272;8.590;2022-10-19T13:05:54;2.50;;;2.40;;
8737;SDS011;4405;49.272;8.590;2022-10-19T13:08:23;2.97;;;2.77;;
8737;SDS011;4405;49.272;8.590;2022-10-19T13:11:03;3.10;;;2.90;;
8737;SDS011;4405;49.272;8.590;2022-10-19T13:13:51;2.63;;;2.43;;
8737;SDS011;4405;49.272;8.590;2022-10-19T13:16:31;3.27;;;2.47;;
8737;SDS011;4405;49.272;8.590;2022-10-19T13:19:03;2.90;;;2.70;;
8737;SDS011;4405;49.272;8.590;2022-10-19T13:24:31;2.90;;;2.80;;
8737;SDS011;4405;49.272;8.590;2022-10-19T13:29:49;3.53;;;2.57;;
8737;SDS011;4405;49.272;8.590;2022-10-19T13:32:34;3.20;;;3.00;;
8737;SDS011;4405;49.272;8.590;2022-10-19T13:35:20;3.90;;;2.90;;
8737;SDS011;4405;49.272;8.590;2022-10-19T13:38:01;2.47;;;2.37;;
8737;SDS011;4405;49.272;8.590;2022-10-19T13:40:34;2.83;;;2.73;;
8737;SDS011;4405;49.272;8.590;2022-10-19T13:43:01;2.43;;;2.30;;
8737;SDS011;4405;49.272;8.590;2022-10-19T13:45:29;3.70;;;2.80;;
8737;SDS011;4405;49.272;8.590;2022-10-19T13:47:56;3.03;;;2.80;;
8737;SDS011;4405;49.272;8.590;2022-10-19T13:50:36;2.93;;;2.70;;
8737;SDS011;4405;49.272;8.590;2022-10-19T13:53:10;3.27;;;3.07;;
8737;SDS011;4405;49.272;8.590;2022-10-19T13:58:30;3.07;;;2.73;;
8737;SDS011;4405;49.272;8.590;2022-10-19T14:01:04;2.53;;;2.27;;
8737;SDS011;4405;49.272;8.590;2022-10-19T14:03:40;2.27;;;2.17;;
8737;SDS011;4405;49.272;8.590;2022-10-19T14:06:16;2.77;;;2.50;;
8737;SDS011;4405;49.272;8.590;2022-10-19T14:08:50;2.53;;;2.47;;
8737;SDS011;4405;49.272;8.590;2022-10-19T14:11:20;6.33;;;3.20;;
8737;SDS011;4405;49.272;8.590;2022-10-19T14:16:32;3.53;;;3.43;;
8737;SDS011;4405;49.272;8.590;2022-10-19T14:18:58;3.70;;;3.40;;
8737;SDS011;4405;49.272;8.590;2022-10-19T14:21:28;3.10;;;2.90;;
8737;SDS011;4405;49.272;8.590;2022-10-19T14:23:54;3.20;;;3.00;;
8737;SDS011;4405;49.272;8.590;2022-10-19T14:26:22;3.60;;;3.30;;
8737;SDS011;4405;49.272;8.590;2022-10-19T14:28:50;3.90;;;3.60;;
8737;SDS011;4405;49.272;8.590;2022-10-19T14:31:17;3.77;;;3.67;;
8737;SDS011;4405;49.272;8.590;2022-10-19T14:33:47;3.87;;;3.57;;
8737;SDS011;4405;49.272;8.590;2022-10-19T14:36:15;3.83;;;3.53;;
8737;SDS011;4405;49.272;8.590;2022-10-19T14:38:42;3.97;;;3.70;;
8737;SDS011;4405;49.272;8.590;2022-10-19T14:41:16;3.60;;;3.40;;
8737;SDS011;4405;49.272;8.590;2022-10-19T14:43:43;5.27;;;3.20;;
8737;SDS011;4405;49.272;8.590;2022-10-19T14:46:10;3.30;;;3.10;;
8737;SDS011;4405;49.272;8.590;2022-10-19T14:48:37;3.50;;;3.37;;
8737;SDS011;4405;49.272;8.590;2022-10-19T14:51:06;3.70;;;3.30;;
8737;SDS011;4405;49.272;8.590;2022-10-19T14:53:35;3.33;;;2.90;;
8737;SDS011;4405;49.272;8.590;2022-10-19T14:56:04;3.20;;;3.00;;
8737;SDS011;4405;49.272;8.590;2022-10-19T14:58:33;5.10;;;3.20;;
8737;SDS011;4405;49.272;8.590;2022-10-19T15:01:00;3.50;;;3.20;;
8737;SDS011;4405;49.272;8.590;2022-10-19T15:03:27;3.43;;;3.23;;
8737;SDS011;4405;49.272;8.590;2022-10-19T15:05:55;3.57;;;3.27;;
8737;SDS011;4405;49.272;8.590;2022-10-19T15:08:28;3.60;;;3.30;;
8737;SDS011;4405;49.272;8.590;2022-10-19T15:10:55;3.53;;;3.43;;
8737;SDS011;4405;49.272;8.590;2022-10-19T15:13:22;4.00;;;3.70;;
8737;SDS011;4405;49.272;8.590;2022-10-19T15:15:49;3.40;;;3.10;;
8737;SDS011;4405;49.272;8.590;2022-10-19T15:18:15;3.67;;;3.30;;
8737;SDS011;4405;49.272;8.590;2022-10-19T15:20:42;3.23;;;3.03;;
8737;SDS011;4405;49.272;8.590;2022-10-19T15:25:58;4.07;;;3.40;;
8737;SDS011;4405;49.272;8.590;2022-10-19T15:28:31;3.37;;;3.20;;
8737;SDS011;4405;49.272;8.590;2022-10-19T15:30:58;2.90;;;2.80;;
8737;SDS011;4405;49.272;8.590;2022-10-19T15:33:25;3.93;;;3.00;;
8737;SDS011;4405;49.272;8.590;2022-10-19T15:35:51;3.40;;;3.20;;
8737;SDS011;4405;49.272;8.590;2022-10-19T15:38:18;3.03;;;2.93;;
8737;SDS011;4405;49.272;8.590;2022-10-19T15:40:45;3.93;;;3.00;;
8737;SDS011;4405;49.272;8.590;2022-10-19T15:46:00;3.60;;;3.40;;
8737;SDS011;4405;49.272;8.590;2022-10-19T15:48:27;4.57;;;3.50;;
8737;SDS011;4405;49.272;8.590;2022-10-19T15:50:54;6.80;;;3.80;;